sensor_id;sensor_type;location;lat;lon;timestamp;P1;durP1;ratioP1;P2;durP2;ratioP2
20623;SDS011;10471;42.736;23.346;2023-07-20T00:00:01;9.73;;;4.30;;
20623;SDS011;10471;42.736;23.346;2023-07-20T00:02:26;8.90;;;4.97;;
20623;SDS011;10471;42.736;23.346;2023-07-20T00:04:52;9.43;;;4.57;;
20623;SDS011;10471;42.736;23.346;2023-07-20T00:07:17;6.80;;;3.80;;
20623;SDS011;10471;42.736;23.346;2023-07-20T00:09:42;10.13;;;3.83;;
20623;SDS011;10471;42.736;23.346;2023-07-20T00:12:08;10.30;;;3.60;;
20623;SDS011;10471;42.736;23.346;2023-07-20T00:14:33;4.70;;;2.83;;
20623;SDS011;10471;42.736;23.346;2023-07-20T00:16:59;7.13;;;3.50;;
20623;SDS011;10471;42.736;23.346;2023-07-20T00:19:27;6.80;;;3.00;;
20623;SDS011;10471;42.736;23.346;2023-07-20T00:21:53;7.47;;;3.00;;
20623;SDS011;10471;42.736;23.346;2023-07-20T00:24:19;10.90;;;3.37;;
20623;SDS011;10471;42.736;23.346;2023-07-20T00:26:45;8.60;;;3.10;;
20623;SDS011;10471;42.736;23.346;2023-07-20T00:29:10;9.27;;;3.30;;
20623;SDS011;10471;42.736;23.346;2023-07-20T00:31:36;6.87;;;2.90;;
20623;SDS011;10471;42.736;23.346;2023-07-20T00:34:05;11.43;;;2.93;;
20623;SDS011;10471;42.736;23.346;2023-07-20T00:36:31;7.70;;;2.80;;
20623;SDS011;10471;42.736;23.346;2023-07-20T00:38:56;7.23;;;3.07;;
20623;SDS011;10471;42.736;23.346;2023-07-20T00:41:22;8.97;;;3.07;;
20623;SDS011;10471;42.736;23.346;2023-07-20T00:43:47;9.93;;;3.43;;
20623;SDS011;10471;42.736;23.346;2023-07-20T00:46:13;11.77;;;3.60;;
20623;SDS011;10471;42.736;23.346;2023-07-20T00:48:39;8.63;;;3.50;;
20623;SDS011;10471;42.736;23.346;2023-07-20T00:51:05;13.53;;;3.77;;
20623;SDS011;10471;42.736;23.346;2023-07-20T00:53:31;7.57;;;3.10;;
20623;SDS011;10471;42.736;23.346;2023-07-20T00:55:57;9.57;;;4.00;;
20623;SDS011;10471;42.736;23.346;2023-07-20T00:58:23;8.20;;;3.73;;
20623;SDS011;10471;42.736;23.346;2023-07-20T01:00:49;9.00;;;3.07;;
20623;SDS011;10471;42.736;23.346;2023-07-20T01:03:14;10.93;;;3.50;;
20623;SDS011;10471;42.736;23.346;2023-07-20T01:09:01;9.90;;;3.40;;
20623;SDS011;10471;42.736;23.346;2023-07-20T01:13:52;10.83;;;3.23;;
20623;SDS011;10471;42.736;23.346;2023-07-20T01:16:18;10.57;;;3.60;;
20623;SDS011;10471;42.736;23.346;2023-07-20T01:18:43;7.60;;;3.20;;
20623;SDS011;10471;42.736;23.346;2023-07-20T01:21:09;7.03;;;3.20;;
20623;SDS011;10471;42.736;23.346;2023-07-20T01:23:51;9.37;;;3.57;;
20623;SDS011;10471;42.736;23.346;2023-07-20T01:32:07;6.17;;;3.43;;
20623;SDS011;10471;42.736;23.346;2023-07-20T01:34:34;10.07;;;3.50;;
20623;SDS011;10471;42.736;23.346;2023-07-20T01:37:01;11.93;;;3.77;;
20623;SDS011;10471;42.736;23.346;2023-07-20T01:39:28;8.80;;;3.40;;
20623;SDS011;10471;42.736;23.346;2023-07-20T01:41:55;9.43;;;3.07;;
20623;SDS011;10471;42.736;23.346;2023-07-20T01:44:20;11.23;;;3.33;;
20623;SDS011;10471;42.736;23.346;2023-07-20T01:46:46;9.00;;;3.57;;
20623;SDS011;10471;42.736;23.346;2023-07-20T01:49:11;11.20;;;3.40;;
20623;SDS011;10471;42.736;23.346;2023-07-20T01:51:37;9.23;;;3.60;;
20623;SDS011;10471;42.736;23.346;2023-07-20T01:54:02;11.17;;;3.37;;
20623;SDS011;10471;42.736;23.346;2023-07-20T01:56:27;10.83;;;3.07;;
20623;SDS011;10471;42.736;23.346;2023-07-20T01:58:53;11.77;;;3.53;;
20623;SDS011;10471;42.736;23.346;2023-07-20T02:01:18;14.47;;;3.33;;
20623;SDS011;10471;42.736;23.346;2023-07-20T02:03:44;10.53;;;3.60;;
20623;SDS011;10471;42.736;23.346;2023-07-20T02:06:09;9.17;;;3.50;;
20623;SDS011;10471;42.736;23.346;2023-07-20T02:08:35;9.73;;;3.57;;
20623;SDS011;10471;42.736;23.346;2023-07-20T02:11:00;9.10;;;3.57;;
20623;SDS011;10471;42.736;23.346;2023-07-20T02:13:26;10.30;;;4.03;;
20623;SDS011;10471;42.736;23.346;2023-07-20T02:15:51;11.07;;;3.63;;
20623;SDS011;10471;42.736;23.346;2023-07-20T02:18:17;9.83;;;3.30;;
20623;SDS011;10471;42.736;23.346;2023-07-20T02:20:42;9.43;;;3.70;;
20623;SDS011;10471;42.736;23.346;2023-07-20T02:23:07;12.30;;;3.87;;
20623;SDS011;10471;42.736;23.346;2023-07-20T02:25:33;7.13;;;3.27;;
20623;SDS011;10471;42.736;23.346;2023-07-20T02:27:58;8.43;;;4.03;;
20623;SDS011;10471;42.736;23.346;2023-07-20T02:30:24;7.43;;;3.53;;
20623;SDS011;10471;42.736;23.346;2023-07-20T02:32:49;6.43;;;3.60;;
20623;SDS011;10471;42.736;23.346;2023-07-20T02:35:15;14.23;;;3.60;;
20623;SDS011;10471;42.736;23.346;2023-07-20T02:37:41;13.97;;;4.07;;
20623;SDS011;10471;42.736;23.346;2023-07-20T02:40:07;9.80;;;3.60;;
20623;SDS011;10471;42.736;23.346;2023-07-20T02:42:33;8.80;;;3.70;;
20623;SDS011;10471;42.736;23.346;2023-07-20T02:44:58;8.33;;;3.40;;
20623;SDS011;10471;42.736;23.346;2023-07-20T02:47:23;8.77;;;3.50;;
20623;SDS011;10471;42.736;23.346;2023-07-20T02:49:49;10.73;;;3.73;;
20623;SDS011;10471;42.736;23.346;2023-07-20T02:52:14;9.13;;;3.90;;
20623;SDS011;10471;42.736;23.346;2023-07-20T02:54:40;11.97;;;3.80;;
20623;SDS011;10471;42.736;23.346;2023-07-20T02:57:05;9.63;;;4.20;;
20623;SDS011;10471;42.736;23.346;2023-07-20T02:59:31;12.00;;;4.37;;
20623;SDS011;10471;42.736;23.346;2023-07-20T03:01:56;10.00;;;4.03;;
20623;SDS011;10471;42.736;23.346;2023-07-20T03:04:22;13.07;;;4.00;;
20623;SDS011;10471;42.736;23.346;2023-07-20T03:06:50;15.80;;;4.33;;
20623;SDS011;10471;42.736;23.346;2023-07-20T03:09:15;14.37;;;4.70;;
20623;SDS011;10471;42.736;23.346;2023-07-20T03:11:41;10.97;;;4.03;;
20623;SDS011;10471;42.736;23.346;2023-07-20T03:14:06;13.23;;;4.83;;
20623;SDS011;10471;42.736;23.346;2023-07-20T03:16:31;11.17;;;4.43;;
20623;SDS011;10471;42.736;23.346;2023-07-20T03:18:58;11.33;;;4.23;;
20623;SDS011;10471;42.736;23.346;2023-07-20T03:21:25;14.93;;;4.80;;
20623;SDS011;10471;42.736;23.346;2023-07-20T03:23:51;12.57;;;4.60;;
20623;SDS011;10471;42.736;23.346;2023-07-20T03:26:16;12.93;;;5.87;;
20623;SDS011;10471;42.736;23.346;2023-07-20T03:28:41;13.03;;;4.93;;
20623;SDS011;10471;42.736;23.346;2023-07-20T03:31:07;10.93;;;5.10;;
20623;SDS011;10471;42.736;23.346;2023-07-20T03:33:32;12.13;;;5.37;;
20623;SDS011;10471;42.736;23.346;2023-07-20T03:35:58;10.70;;;4.70;;
20623;SDS011;10471;42.736;23.346;2023-07-20T03:38:24;11.70;;;4.47;;
20623;SDS011;10471;42.736;23.346;2023-07-20T03:40:57;13.03;;;4.67;;
20623;SDS011;10471;42.736;23.346;2023-07-20T03:43:25;11.03;;;4.73;;
20623;SDS011;10471;42.736;23.346;2023-07-20T03:45:52;8.70;;;4.53;;
20623;SDS011;10471;42.736;23.346;2023-07-20T03:48:19;12.23;;;5.13;;
20623;SDS011;10471;42.736;23.346;2023-07-20T03:50:46;13.40;;;5.00;;
20623;SDS011;10471;42.736;23.346;2023-07-20T03:53:13;12.43;;;5.13;;
20623;SDS011;10471;42.736;23.346;2023-07-20T03:55:39;11.07;;;5.47;;
20623;SDS011;10471;42.736;23.346;2023-07-20T03:58:07;13.33;;;6.30;;
20623;SDS011;10471;42.736;23.346;2023-07-20T04:00:33;13.63;;;6.00;;
20623;SDS011;10471;42.736;23.346;2023-07-20T04:02:59;15.30;;;6.27;;
20623;SDS011;10471;42.736;23.346;2023-07-20T04:05:25;13.80;;;6.20;;
20623;SDS011;10471;42.736;23.346;2023-07-20T04:07:51;12.00;;;6.13;;
20623;SDS011;10471;42.736;23.346;2023-07-20T04:10:17;13.73;;;6.13;;
20623;SDS011;10471;42.736;23.346;2023-07-20T04:12:43;13.23;;;5.73;;
20623;SDS011;10471;42.736;23.346;2023-07-20T04:15:09;13.13;;;6.07;;
20623;SDS011;10471;42.736;23.346;2023-07-20T04:17:35;13.77;;;5.90;;
20623;SDS011;10471;42.736;23.346;2023-07-20T04:20:00;8.97;;;5.87;;
20623;SDS011;10471;42.736;23.346;2023-07-20T04:22:26;11.50;;;5.97;;
20623;SDS011;10471;42.736;23.346;2023-07-20T04:24:52;16.40;;;5.83;;
20623;SDS011;10471;42.736;23.346;2023-07-20T04:27:17;13.57;;;5.80;;
20623;SDS011;10471;42.736;23.346;2023-07-20T04:29:43;11.30;;;5.97;;
20623;SDS011;10471;42.736;23.346;2023-07-20T04:32:08;22.30;;;6.37;;
20623;SDS011;10471;42.736;23.346;2023-07-20T04:34:34;20.57;;;7.30;;
20623;SDS011;10471;42.736;23.346;2023-07-20T04:37:02;21.77;;;6.97;;
20623;SDS011;10471;42.736;23.346;2023-07-20T04:39:28;13.60;;;6.13;;
20623;SDS011;10471;42.736;23.346;2023-07-20T04:41:53;15.67;;;6.77;;
20623;SDS011;10471;42.736;23.346;2023-07-20T04:44:19;15.47;;;7.27;;
20623;SDS011;10471;42.736;23.346;2023-07-20T04:46:44;12.43;;;6.30;;
20623;SDS011;10471;42.736;23.346;2023-07-20T04:49:10;12.57;;;6.50;;
20623;SDS011;10471;42.736;23.346;2023-07-20T04:51:37;14.37;;;6.47;;
20623;SDS011;10471;42.736;23.346;2023-07-20T04:54:03;15.20;;;7.00;;
20623;SDS011;10471;42.736;23.346;2023-07-20T04:56:29;17.33;;;6.37;;
20623;SDS011;10471;42.736;23.346;2023-07-20T04:58:54;15.43;;;6.60;;
20623;SDS011;10471;42.736;23.346;2023-07-20T05:01:19;16.20;;;6.70;;
20623;SDS011;10471;42.736;23.346;2023-07-20T05:03:45;14.60;;;6.63;;
20623;SDS011;10471;42.736;23.346;2023-07-20T05:06:10;12.47;;;5.80;;
20623;SDS011;10471;42.736;23.346;2023-07-20T05:08:36;12.13;;;5.80;;
20623;SDS011;10471;42.736;23.346;2023-07-20T05:11:01;12.33;;;5.60;;
20623;SDS011;10471;42.736;23.346;2023-07-20T05:13:27;12.97;;;6.13;;
20623;SDS011;10471;42.736;23.346;2023-07-20T05:15:52;13.77;;;6.33;;
20623;SDS011;10471;42.736;23.346;2023-07-20T05:18:18;13.20;;;5.57;;
20623;SDS011;10471;42.736;23.346;2023-07-20T05:20:48;15.13;;;5.10;;
20623;SDS011;10471;42.736;23.346;2023-07-20T05:23:14;14.97;;;5.70;;
20623;SDS011;10471;42.736;23.346;2023-07-20T05:25:40;14.07;;;5.60;;
20623;SDS011;10471;42.736;23.346;2023-07-20T05:28:06;13.97;;;5.33;;
20623;SDS011;10471;42.736;23.346;2023-07-20T05:30:31;8.83;;;5.00;;
20623;SDS011;10471;42.736;23.346;2023-07-20T05:32:57;12.83;;;4.73;;
20623;SDS011;10471;42.736;23.346;2023-07-20T05:35:22;16.00;;;5.83;;
20623;SDS011;10471;42.736;23.346;2023-07-20T05:37:48;13.53;;;5.47;;
20623;SDS011;10471;42.736;23.346;2023-07-20T05:40:16;10.10;;;5.07;;
20623;SDS011;10471;42.736;23.346;2023-07-20T05:42:46;10.40;;;5.00;;
20623;SDS011;10471;42.736;23.346;2023-07-20T05:45:13;10.63;;;5.23;;
20623;SDS011;10471;42.736;23.346;2023-07-20T05:47:39;10.43;;;5.27;;
20623;SDS011;10471;42.736;23.346;2023-07-20T05:50:05;12.27;;;5.70;;
20623;SDS011;10471;42.736;23.346;2023-07-20T05:52:30;11.57;;;6.03;;
20623;SDS011;10471;42.736;23.346;2023-07-20T05:54:56;12.03;;;6.00;;
20623;SDS011;10471;42.736;23.346;2023-07-20T05:57:21;12.27;;;6.47;;
20623;SDS011;10471;42.736;23.346;2023-07-20T05:59:47;13.57;;;5.90;;
20623;SDS011;10471;42.736;23.346;2023-07-20T06:02:12;15.90;;;6.40;;
20623;SDS011;10471;42.736;23.346;2023-07-20T06:04:38;16.53;;;6.30;;
20623;SDS011;10471;42.736;23.346;2023-07-20T06:07:04;13.90;;;5.90;;
20623;SDS011;10471;42.736;23.346;2023-07-20T06:09:30;13.33;;;5.73;;
20623;SDS011;10471;42.736;23.346;2023-07-20T06:11:56;11.77;;;6.50;;
20623;SDS011;10471;42.736;23.346;2023-07-20T06:14:21;12.50;;;6.33;;
20623;SDS011;10471;42.736;23.346;2023-07-20T06:16:47;11.70;;;6.20;;
20623;SDS011;10471;42.736;23.346;2023-07-20T06:19:12;17.87;;;6.33;;
20623;SDS011;10471;42.736;23.346;2023-07-20T06:21:38;13.60;;;6.53;;
20623;SDS011;10471;42.736;23.346;2023-07-20T06:24:04;16.67;;;6.30;;
20623;SDS011;10471;42.736;23.346;2023-07-20T06:26:29;14.63;;;6.30;;
20623;SDS011;10471;42.736;23.346;2023-07-20T06:28:55;17.23;;;6.27;;
20623;SDS011;10471;42.736;23.346;2023-07-20T06:31:21;13.63;;;5.30;;
20623;SDS011;10471;42.736;23.346;2023-07-20T06:33:47;12.87;;;5.83;;
20623;SDS011;10471;42.736;23.346;2023-07-20T06:36:12;13.60;;;5.60;;
20623;SDS011;10471;42.736;23.346;2023-07-20T06:38:37;14.47;;;6.40;;
20623;SDS011;10471;42.736;23.346;2023-07-20T06:41:03;17.17;;;6.00;;
20623;SDS011;10471;42.736;23.346;2023-07-20T06:43:29;15.83;;;5.90;;
20623;SDS011;10471;42.736;23.346;2023-07-20T06:45:54;15.40;;;5.33;;
20623;SDS011;10471;42.736;23.346;2023-07-20T06:48:20;10.30;;;4.87;;
20623;SDS011;10471;42.736;23.346;2023-07-20T06:50:46;13.03;;;4.60;;
20623;SDS011;10471;42.736;23.346;2023-07-20T06:53:12;10.50;;;4.93;;
20623;SDS011;10471;42.736;23.346;2023-07-20T06:55:37;13.70;;;4.93;;
20623;SDS011;10471;42.736;23.346;2023-07-20T06:58:03;12.93;;;5.10;;
20623;SDS011;10471;42.736;23.346;2023-07-20T07:00:28;11.03;;;4.20;;
20623;SDS011;10471;42.736;23.346;2023-07-20T07:02:53;10.27;;;4.97;;
20623;SDS011;10471;42.736;23.346;2023-07-20T07:05:19;11.93;;;4.37;;
20623;SDS011;10471;42.736;23.346;2023-07-20T07:07:44;13.23;;;5.00;;
20623;SDS011;10471;42.736;23.346;2023-07-20T07:10:10;14.97;;;5.30;;
20623;SDS011;10471;42.736;23.346;2023-07-20T07:12:35;12.00;;;4.70;;
20623;SDS011;10471;42.736;23.346;2023-07-20T07:15:01;9.17;;;4.20;;
20623;SDS011;10471;42.736;23.346;2023-07-20T07:17:27;11.53;;;4.30;;
20623;SDS011;10471;42.736;23.346;2023-07-20T07:19:53;11.37;;;4.60;;
20623;SDS011;10471;42.736;23.346;2023-07-20T07:22:21;10.40;;;4.27;;
20623;SDS011;10471;42.736;23.346;2023-07-20T07:24:47;11.50;;;4.90;;
20623;SDS011;10471;42.736;23.346;2023-07-20T07:27:12;13.17;;;4.60;;
20623;SDS011;10471;42.736;23.346;2023-07-20T07:29:38;11.23;;;4.50;;
20623;SDS011;10471;42.736;23.346;2023-07-20T07:32:03;12.67;;;5.13;;
20623;SDS011;10471;42.736;23.346;2023-07-20T07:34:29;13.53;;;4.83;;
20623;SDS011;10471;42.736;23.346;2023-07-20T07:36:54;12.17;;;4.77;;
20623;SDS011;10471;42.736;23.346;2023-07-20T07:39:20;9.67;;;4.30;;
20623;SDS011;10471;42.736;23.346;2023-07-20T07:41:45;11.40;;;4.20;;
20623;SDS011;10471;42.736;23.346;2023-07-20T07:44:10;13.30;;;4.40;;
20623;SDS011;10471;42.736;23.346;2023-07-20T07:46:36;13.13;;;4.37;;
20623;SDS011;10471;42.736;23.346;2023-07-20T07:49:02;11.20;;;4.53;;
20623;SDS011;10471;42.736;23.346;2023-07-20T07:51:28;13.73;;;4.10;;
20623;SDS011;10471;42.736;23.346;2023-07-20T07:53:54;11.03;;;3.90;;
20623;SDS011;10471;42.736;23.346;2023-07-20T07:56:19;15.77;;;4.60;;
20623;SDS011;10471;42.736;23.346;2023-07-20T07:58:50;10.40;;;4.40;;
20623;SDS011;10471;42.736;23.346;2023-07-20T08:01:17;14.07;;;4.47;;
20623;SDS011;10471;42.736;23.346;2023-07-20T08:03:44;12.87;;;4.73;;
20623;SDS011;10471;42.736;23.346;2023-07-20T08:06:12;13.27;;;4.70;;
20623;SDS011;10471;42.736;23.346;2023-07-20T08:08:38;9.27;;;4.40;;
20623;SDS011;10471;42.736;23.346;2023-07-20T08:11:04;12.77;;;4.53;;
20623;SDS011;10471;42.736;23.346;2023-07-20T08:13:29;12.33;;;5.80;;
20623;SDS011;10471;42.736;23.346;2023-07-20T08:15:55;11.47;;;5.33;;
20623;SDS011;10471;42.736;23.346;2023-07-20T08:18:20;11.63;;;4.83;;
20623;SDS011;10471;42.736;23.346;2023-07-20T08:20:46;22.17;;;4.70;;
20623;SDS011;10471;42.736;23.346;2023-07-20T08:23:12;25.63;;;5.00;;
20623;SDS011;10471;42.736;23.346;2023-07-20T08:25:39;12.30;;;4.00;;
20623;SDS011;10471;42.736;23.346;2023-07-20T08:28:08;10.83;;;3.53;;
20623;SDS011;10471;42.736;23.346;2023-07-20T08:30:43;7.77;;;3.20;;
20623;SDS011;10471;42.736;23.346;2023-07-20T08:33:12;7.77;;;3.10;;
20623;SDS011;10471;42.736;23.346;2023-07-20T08:35:38;11.13;;;3.50;;
20623;SDS011;10471;42.736;23.346;2023-07-20T08:38:04;8.23;;;3.27;;
20623;SDS011;10471;42.736;23.346;2023-07-20T08:40:30;12.97;;;3.50;;
20623;SDS011;10471;42.736;23.346;2023-07-20T08:42:57;7.80;;;3.10;;
20623;SDS011;10471;42.736;23.346;2023-07-20T08:45:25;9.97;;;3.60;;
20623;SDS011;10471;42.736;23.346;2023-07-20T08:47:53;11.70;;;3.40;;
20623;SDS011;10471;42.736;23.346;2023-07-20T08:50:20;6.47;;;3.23;;
20623;SDS011;10471;42.736;23.346;2023-07-20T08:52:47;8.67;;;3.23;;
20623;SDS011;10471;42.736;23.346;2023-07-20T08:55:13;8.73;;;3.47;;
20623;SDS011;10471;42.736;23.346;2023-07-20T08:57:39;9.90;;;3.40;;
20623;SDS011;10471;42.736;23.346;2023-07-20T09:00:06;13.57;;;3.60;;
20623;SDS011;10471;42.736;23.346;2023-07-20T09:02:38;10.67;;;3.10;;
20623;SDS011;10471;42.736;23.346;2023-07-20T09:05:07;9.53;;;3.47;;
20623;SDS011;10471;42.736;23.346;2023-07-20T09:07:35;9.47;;;3.40;;
20623;SDS011;10471;42.736;23.346;2023-07-20T09:10:01;12.33;;;3.33;;
20623;SDS011;10471;42.736;23.346;2023-07-20T09:12:31;8.87;;;3.37;;
20623;SDS011;10471;42.736;23.346;2023-07-20T09:14:57;8.23;;;3.10;;
20623;SDS011;10471;42.736;23.346;2023-07-20T09:17:25;7.47;;;2.87;;
20623;SDS011;10471;42.736;23.346;2023-07-20T09:19:51;7.23;;;3.07;;
20623;SDS011;10471;42.736;23.346;2023-07-20T09:22:16;7.27;;;3.20;;
20623;SDS011;10471;42.736;23.346;2023-07-20T09:24:42;9.87;;;3.60;;
20623;SDS011;10471;42.736;23.346;2023-07-20T09:27:08;12.03;;;3.23;;
20623;SDS011;10471;42.736;23.346;2023-07-20T09:29:34;9.33;;;3.10;;
20623;SDS011;10471;42.736;23.346;2023-07-20T09:32:12;7.80;;;2.80;;
20623;SDS011;10471;42.736;23.346;2023-07-20T09:34:37;8.20;;;2.63;;
20623;SDS011;10471;42.736;23.346;2023-07-20T09:37:02;13.73;;;3.10;;
20623;SDS011;10471;42.736;23.346;2023-07-20T09:39:29;7.83;;;2.80;;
20623;SDS011;10471;42.736;23.346;2023-07-20T09:41:54;8.10;;;3.27;;
20623;SDS011;10471;42.736;23.346;2023-07-20T09:44:27;6.47;;;2.80;;
20623;SDS011;10471;42.736;23.346;2023-07-20T09:46:53;11.63;;;3.13;;
20623;SDS011;10471;42.736;23.346;2023-07-20T09:49:19;9.40;;;2.73;;
20623;SDS011;10471;42.736;23.346;2023-07-20T09:51:45;8.10;;;2.93;;
20623;SDS011;10471;42.736;23.346;2023-07-20T09:54:11;9.33;;;3.00;;
20623;SDS011;10471;42.736;23.346;2023-07-20T09:56:38;9.05;;;2.88;;
20623;SDS011;10471;42.736;23.346;2023-07-20T09:59:04;8.37;;;2.40;;
20623;SDS011;10471;42.736;23.346;2023-07-20T10:01:30;10.70;;;2.83;;
20623;SDS011;10471;42.736;23.346;2023-07-20T10:03:58;8.30;;;3.00;;
20623;SDS011;10471;42.736;23.346;2023-07-20T10:06:26;9.00;;;2.93;;
20623;SDS011;10471;42.736;23.346;2023-07-20T10:08:55;8.17;;;3.00;;
20623;SDS011;10471;42.736;23.346;2023-07-20T10:11:31;6.38;;;2.90;;
20623;SDS011;10471;42.736;23.346;2023-07-20T10:13:59;7.38;;;3.00;;
20623;SDS011;10471;42.736;23.346;2023-07-20T10:16:31;7.10;;;2.80;;
20623;SDS011;10471;42.736;23.346;2023-07-20T10:19:07;9.20;;;2.83;;
20623;SDS011;10471;42.736;23.346;2023-07-20T10:21:40;8.17;;;2.97;;
20623;SDS011;10471;42.736;23.346;2023-07-20T10:24:09;9.40;;;2.90;;
20623;SDS011;10471;42.736;23.346;2023-07-20T10:26:36;11.00;;;3.43;;
20623;SDS011;10471;42.736;23.346;2023-07-20T10:29:02;11.70;;;3.20;;
20623;SDS011;10471;42.736;23.346;2023-07-20T10:31:28;12.03;;;2.90;;
20623;SDS011;10471;42.736;23.346;2023-07-20T10:33:56;13.30;;;3.60;;
20623;SDS011;10471;42.736;23.346;2023-07-20T10:36:26;11.77;;;3.17;;
20623;SDS011;10471;42.736;23.346;2023-07-20T10:38:57;9.13;;;3.27;;
20623;SDS011;10471;42.736;23.346;2023-07-20T10:41:32;9.93;;;3.43;;
20623;SDS011;10471;42.736;23.346;2023-07-20T10:44:03;13.30;;;3.10;;
20623;SDS011;10471;42.736;23.346;2023-07-20T10:46:34;9.47;;;3.10;;
20623;SDS011;10471;42.736;23.346;2023-07-20T10:49:05;9.53;;;2.80;;
20623;SDS011;10471;42.736;23.346;2023-07-20T10:51:45;7.33;;;2.97;;
20623;SDS011;10471;42.736;23.346;2023-07-20T10:56:41;6.73;;;2.77;;
20623;SDS011;10471;42.736;23.346;2023-07-20T10:59:23;9.77;;;2.78;;
20623;SDS011;10471;42.736;23.346;2023-07-20T11:02:06;7.60;;;2.97;;
20623;SDS011;10471;42.736;23.346;2023-07-20T11:07:08;9.23;;;3.10;;
20623;SDS011;10471;42.736;23.346;2023-07-20T11:09:35;7.07;;;3.00;;
20623;SDS011;10471;42.736;23.346;2023-07-20T11:14:42;9.13;;;2.63;;
20623;SDS011;10471;42.736;23.346;2023-07-20T11:17:12;8.00;;;3.17;;
20623;SDS011;10471;42.736;23.346;2023-07-20T11:19:39;7.32;;;2.80;;
20623;SDS011;10471;42.736;23.346;2023-07-20T11:22:07;10.88;;;2.90;;
20623;SDS011;10471;42.736;23.346;2023-07-20T11:24:34;5.97;;;2.80;;
20623;SDS011;10471;42.736;23.346;2023-07-20T11:26:59;8.30;;;2.80;;
20623;SDS011;10471;42.736;23.346;2023-07-20T11:29:26;10.15;;;3.35;;
20623;SDS011;10471;42.736;23.346;2023-07-20T11:31:51;9.77;;;3.53;;
20623;SDS011;10471;42.736;23.346;2023-07-20T11:34:18;10.15;;;3.65;;
20623;SDS011;10471;42.736;23.346;2023-07-20T11:36:47;9.18;;;3.40;;
20623;SDS011;10471;42.736;23.346;2023-07-20T11:39:14;8.68;;;3.38;;
20623;SDS011;10471;42.736;23.346;2023-07-20T11:41:45;11.93;;;3.58;;
20623;SDS011;10471;42.736;23.346;2023-07-20T11:44:12;6.57;;;3.63;;
20623;SDS011;10471;42.736;23.346;2023-07-20T11:46:38;8.40;;;3.90;;
20623;SDS011;10471;42.736;23.346;2023-07-20T11:49:04;9.70;;;3.50;;
20623;SDS011;10471;42.736;23.346;2023-07-20T11:51:30;6.93;;;3.50;;
20623;SDS011;10471;42.736;23.346;2023-07-20T11:53:56;8.77;;;3.90;;
20623;SDS011;10471;42.736;23.346;2023-07-20T11:56:23;9.38;;;3.80;;
20623;SDS011;10471;42.736;23.346;2023-07-20T11:58:49;9.55;;;3.40;;
20623;SDS011;10471;42.736;23.346;2023-07-20T12:01:15;10.57;;;3.67;;
20623;SDS011;10471;42.736;23.346;2023-07-20T12:03:42;7.45;;;3.42;;
20623;SDS011;10471;42.736;23.346;2023-07-20T12:06:12;10.15;;;3.40;;
20623;SDS011;10471;42.736;23.346;2023-07-20T12:08:42;11.13;;;3.72;;
20623;SDS011;10471;42.736;23.346;2023-07-20T12:11:09;7.72;;;3.83;;
20623;SDS011;10471;42.736;23.346;2023-07-20T12:16:09;11.23;;;3.38;;
20623;SDS011;10471;42.736;23.346;2023-07-20T12:18:36;9.77;;;3.63;;
20623;SDS011;10471;42.736;23.346;2023-07-20T12:21:01;10.73;;;3.25;;
20623;SDS011;10471;42.736;23.346;2023-07-20T12:23:34;7.68;;;3.72;;
20623;SDS011;10471;42.736;23.346;2023-07-20T12:26:00;8.02;;;3.53;;
20623;SDS011;10471;42.736;23.346;2023-07-20T12:28:26;10.40;;;3.47;;
20623;SDS011;10471;42.736;23.346;2023-07-20T12:30:51;9.30;;;3.67;;
20623;SDS011;10471;42.736;23.346;2023-07-20T12:33:21;11.65;;;3.90;;
20623;SDS011;10471;42.736;23.346;2023-07-20T12:35:48;7.63;;;3.20;;
20623;SDS011;10471;42.736;23.346;2023-07-20T12:38:14;11.90;;;3.40;;
20623;SDS011;10471;42.736;23.346;2023-07-20T12:40:41;10.27;;;3.40;;
20623;SDS011;10471;42.736;23.346;2023-07-20T12:43:06;9.73;;;3.60;;
20623;SDS011;10471;42.736;23.346;2023-07-20T12:45:32;7.50;;;3.53;;
20623;SDS011;10471;42.736;23.346;2023-07-20T12:47:58;7.18;;;3.10;;
20623;SDS011;10471;42.736;23.346;2023-07-20T12:50:23;7.35;;;3.42;;
20623;SDS011;10471;42.736;23.346;2023-07-20T12:52:48;8.48;;;3.25;;
20623;SDS011;10471;42.736;23.346;2023-07-20T12:55:14;13.02;;;3.95;;
20623;SDS011;10471;42.736;23.346;2023-07-20T12:57:40;10.25;;;3.30;;
20623;SDS011;10471;42.736;23.346;2023-07-20T13:00:07;8.57;;;3.35;;
20623;SDS011;10471;42.736;23.346;2023-07-20T13:02:34;9.40;;;3.00;;
20623;SDS011;10471;42.736;23.346;2023-07-20T13:05:00;10.18;;;3.50;;
20623;SDS011;10471;42.736;23.346;2023-07-20T13:07:29;7.50;;;3.17;;
20623;SDS011;10471;42.736;23.346;2023-07-20T13:10:03;8.82;;;2.90;;
20623;SDS011;10471;42.736;23.346;2023-07-20T13:12:30;7.20;;;3.00;;
20623;SDS011;10471;42.736;23.346;2023-07-20T13:14:57;9.95;;;3.15;;
20623;SDS011;10471;42.736;23.346;2023-07-20T13:17:25;12.35;;;3.38;;
20623;SDS011;10471;42.736;23.346;2023-07-20T13:19:51;7.65;;;3.15;;
20623;SDS011;10471;42.736;23.346;2023-07-20T13:22:17;8.55;;;3.20;;
20623;SDS011;10471;42.736;23.346;2023-07-20T13:24:44;9.10;;;3.20;;
20623;SDS011;10471;42.736;23.346;2023-07-20T13:27:14;8.45;;;2.60;;
20623;SDS011;10471;42.736;23.346;2023-07-20T13:29:40;8.57;;;3.20;;
20623;SDS011;10471;42.736;23.346;2023-07-20T13:32:06;12.35;;;3.40;;
20623;SDS011;10471;42.736;23.346;2023-07-20T13:34:32;9.85;;;3.13;;
20623;SDS011;10471;42.736;23.346;2023-07-20T13:36:58;8.75;;;3.00;;
20623;SDS011;10471;42.736;23.346;2023-07-20T13:39:23;7.35;;;2.83;;
20623;SDS011;10471;42.736;23.346;2023-07-20T13:41:51;9.75;;;2.80;;
20623;SDS011;10471;42.736;23.346;2023-07-20T13:44:16;7.43;;;2.80;;
20623;SDS011;10471;42.736;23.346;2023-07-20T13:46:41;8.60;;;2.83;;
20623;SDS011;10471;42.736;23.346;2023-07-20T13:49:07;8.93;;;2.75;;
20623;SDS011;10471;42.736;23.346;2023-07-20T13:51:32;8.00;;;2.75;;
20623;SDS011;10471;42.736;23.346;2023-07-20T13:53:58;5.38;;;2.53;;
20623;SDS011;10471;42.736;23.346;2023-07-20T13:56:23;13.10;;;3.42;;
20623;SDS011;10471;42.736;23.346;2023-07-20T13:58:49;8.02;;;2.63;;
20623;SDS011;10471;42.736;23.346;2023-07-20T14:01:15;6.55;;;2.25;;
20623;SDS011;10471;42.736;23.346;2023-07-20T14:03:42;9.57;;;2.88;;
20623;SDS011;10471;42.736;23.346;2023-07-20T14:06:08;7.13;;;2.38;;
20623;SDS011;10471;42.736;23.346;2023-07-20T14:08:33;6.28;;;2.38;;
20623;SDS011;10471;42.736;23.346;2023-07-20T14:10:58;8.68;;;2.95;;
20623;SDS011;10471;42.736;23.346;2023-07-20T14:13:24;7.50;;;2.80;;
20623;SDS011;10471;42.736;23.346;2023-07-20T14:15:49;8.82;;;2.85;;
20623;SDS011;10471;42.736;23.346;2023-07-20T14:18:15;8.38;;;2.67;;
20623;SDS011;10471;42.736;23.346;2023-07-20T14:20:41;16.25;;;3.40;;
20623;SDS011;10471;42.736;23.346;2023-07-20T14:23:07;9.10;;;3.08;;
20623;SDS011;10471;42.736;23.346;2023-07-20T14:25:32;5.65;;;2.85;;
20623;SDS011;10471;42.736;23.346;2023-07-20T14:27:58;6.22;;;2.40;;
20623;SDS011;10471;42.736;23.346;2023-07-20T14:30:24;12.80;;;3.13;;
20623;SDS011;10471;42.736;23.346;2023-07-20T14:32:50;6.45;;;2.60;;
20623;SDS011;10471;42.736;23.346;2023-07-20T14:35:16;7.90;;;3.20;;
20623;SDS011;10471;42.736;23.346;2023-07-20T14:37:41;8.65;;;3.05;;
20623;SDS011;10471;42.736;23.346;2023-07-20T14:40:07;9.88;;;2.85;;
20623;SDS011;10471;42.736;23.346;2023-07-20T14:42:33;6.32;;;2.53;;
20623;SDS011;10471;42.736;23.346;2023-07-20T14:44:58;7.57;;;2.92;;